sensor_id;sensor_type;location;lat;lon;timestamp;pressure;altitude;pressure_sealevel;temperature;humidity
25869;BME280;13688;53.154;18.136;2023-03-04T00:04:17;100648.02;;;0.91;83.23
25869;BME280;13688;53.154;18.136;2023-03-04T00:09:39;100599.45;;;0.92;82.74
25869;BME280;13688;53.154;18.136;2023-03-04T00:15:03;100593.30;;;0.92;82.15
25869;BME280;13688;53.154;18.136;2023-03-04T00:20:28;100567.81;;;0.89;81.48
25869;BME280;13688;53.154;18.136;2023-03-04T00:25:52;100552.86;;;0.88;80.75
25869;BME280;13688;53.154;18.136;2023-03-04T00:31:17;100529.34;;;0.80;79.93
25869;BME280;13688;53.154;18.136;2023-03-04T00:36:41;100510.89;;;0.79;79.39
25869;BME280;13688;53.154;18.136;2023-03-04T00:42:06;100507.39;;;0.78;79.36
25869;BME280;13688;53.154;18.136;2023-03-04T00:47:28;100493.23;;;0.79;79.70
25869;BME280;13688;53.154;18.136;2023-03-04T00:52:50;100488.66;;;0.83;79.96
25869;BME280;13688;53.154;18.136;2023-03-04T00:58:13;100517.46;;;0.91;80.02
25869;BME280;13688;53.154;18.136;2023-03-04T01:03:38;100520.77;;;0.96;79.94
25869;BME280;13688;53.154;18.136;2023-03-04T01:09:01;100525.02;;;1.00;79.87
25869;BME280;13688;53.154;18.136;2023-03-04T01:14:25;100517.02;;;1.01;79.84
25869;BME280;13688;53.154;18.136;2023-03-04T01:19:48;100507.83;;;1.10;79.80
25869;BME280;13688;53.154;18.136;2023-03-04T01:25:12;100531.59;;;1.11;79.59
25869;BME280;13688;53.154;18.136;2023-03-04T01:30:35;100484.64;;;1.15;79.52
25869;BME280;13688;53.154;18.136;2023-03-04T01:35:59;100503.61;;;1.26;79.39
25869;BME280;13688;53.154;18.136;2023-03-04T01:41:25;100488.36;;;1.31;79.20
25869;BME280;13688;53.154;18.136;2023-03-04T01:46:51;100505.80;;;1.37;79.10
25869;BME280;13688;53.154;18.136;2023-03-04T01:52:15;100474.00;;;1.37;79.11
25869;BME280;13688;53.154;18.136;2023-03-04T01:57:40;100471.21;;;1.40;79.23
25869;BME280;13688;53.154;18.136;2023-03-04T02:03:23;100473.05;;;1.58;79.88
25869;BME280;13688;53.154;18.136;2023-03-04T02:08:46;100457.75;;;1.44;79.35
25869;BME280;13688;53.154;18.136;2023-03-04T02:14:09;100473.53;;;1.48;79.45
25869;BME280;13688;53.154;18.136;2023-03-04T02:19:56;100446.11;;;1.49;79.53
25869;BME280;13688;53.154;18.136;2023-03-04T02:25:51;100432.00;;;1.48;79.68
25869;BME280;13688;53.154;18.136;2023-03-04T02:31:45;100439.16;;;1.46;79.82
25869;BME280;13688;53.154;18.136;2023-03-04T02:37:09;100438.80;;;1.54;79.92
25869;BME280;13688;53.154;18.136;2023-03-04T02:42:44;100425.09;;;1.64;80.67
25869;BME280;13688;53.154;18.136;2023-03-04T02:48:07;100445.84;;;1.55;79.94
25869;BME280;13688;53.154;18.136;2023-03-04T02:53:32;100417.55;;;1.55;79.97
25869;BME280;13688;53.154;18.136;2023-03-04T02:58:55;100427.30;;;1.55;79.97
25869;BME280;13688;53.154;18.136;2023-03-04T03:04:18;100426.48;;;1.53;80.08
25869;BME280;13688;53.154;18.136;2023-03-04T03:09:41;100427.34;;;1.53;80.22
25869;BME280;13688;53.154;18.136;2023-03-04T03:15:03;100412.18;;;1.57;80.32
25869;BME280;13688;53.154;18.136;2023-03-04T03:20:26;100420.91;;;1.59;80.27
25869;BME280;13688;53.154;18.136;2023-03-04T03:25:49;100404.23;;;1.57;80.21
25869;BME280;13688;53.154;18.136;2023-03-04T03:31:12;100403.30;;;1.58;80.24
25869;BME280;13688;53.154;18.136;2023-03-04T03:36:35;100418.41;;;1.56;80.29
25869;BME280;13688;53.154;18.136;2023-03-04T03:41:57;100401.58;;;1.57;80.42
25869;BME280;13688;53.154;18.136;2023-03-04T03:47:19;100396.47;;;1.52;80.51
25869;BME280;13688;53.154;18.136;2023-03-04T03:52:44;100391.84;;;1.57;80.61
25869;BME280;13688;53.154;18.136;2023-03-04T03:58:06;100396.36;;;1.55;80.60
25869;BME280;13688;53.154;18.136;2023-03-04T04:03:29;100379.72;;;1.52;80.68
25869;BME280;13688;53.154;18.136;2023-03-04T04:08:51;100385.76;;;1.55;80.71
25869;BME280;13688;53.154;18.136;2023-03-04T04:14:15;100400.72;;;1.56;80.75
25869;BME280;13688;53.154;18.136;2023-03-04T04:19:37;100391.91;;;1.56;80.72
25869;BME280;13688;53.154;18.136;2023-03-04T04:24:59;100389.27;;;1.56;80.77
25869;BME280;13688;53.154;18.136;2023-03-04T04:30:23;100389.19;;;1.57;80.77
25869;BME280;13688;53.154;18.136;2023-03-04T04:35:45;100377.66;;;1.58;80.77
25869;BME280;13688;53.154;18.136;2023-03-04T04:41:16;100375.00;;;1.58;80.77
25869;BME280;13688;53.154;18.136;2023-03-04T04:46:39;100364.48;;;1.57;80.79
25869;BME280;13688;53.154;18.136;2023-03-04T04:52:01;100360.83;;;1.59;80.87
25869;BME280;13688;53.154;18.136;2023-03-04T04:57:24;100351.16;;;1.58;80.91
25869;BME280;13688;53.154;18.136;2023-03-04T05:02:46;100356.46;;;1.58;80.96
25869;BME280;13688;53.154;18.136;2023-03-04T05:08:09;100344.06;;;1.59;81.04
25869;BME280;13688;53.154;18.136;2023-03-04T05:13:31;100346.88;;;1.56;81.14
25869;BME280;13688;53.154;18.136;2023-03-04T05:18:54;100342.55;;;1.53;81.34
25869;BME280;13688;53.154;18.136;2023-03-04T05:24:17;100338.27;;;1.51;81.60
25869;BME280;13688;53.154;18.136;2023-03-04T05:29:39;100329.45;;;1.50;81.95
25869;BME280;13688;53.154;18.136;2023-03-04T05:35:03;100327.73;;;1.49;82.24
25869;BME280;13688;53.154;18.136;2023-03-04T05:40:26;100350.66;;;1.50;82.46
25869;BME280;13688;53.154;18.136;2023-03-04T05:45:50;100345.20;;;1.53;82.64
25869;BME280;13688;53.154;18.136;2023-03-04T05:51:13;100345.16;;;1.55;82.82
25869;BME280;13688;53.154;18.136;2023-03-04T05:56:35;100346.88;;;1.56;82.97
25869;BME280;13688;53.154;18.136;2023-03-04T06:01:57;100343.28;;;1.57;83.10
25869;BME280;13688;53.154;18.136;2023-03-04T06:07:20;100344.92;;;1.59;83.30
25869;BME280;13688;53.154;18.136;2023-03-04T06:12:42;100359.97;;;1.59;83.40
25869;BME280;13688;53.154;18.136;2023-03-04T06:18:05;100369.44;;;1.64;83.52
25869;BME280;13688;53.154;18.136;2023-03-04T06:23:28;100345.43;;;1.67;83.59
25869;BME280;13688;53.154;18.136;2023-03-04T06:28:50;100333.04;;;1.68;83.58
25869;BME280;13688;53.154;18.136;2023-03-04T06:34:15;100341.77;;;1.70;83.62
25869;BME280;13688;53.154;18.136;2023-03-04T06:39:38;100347.72;;;1.75;83.68
25869;BME280;13688;53.154;18.136;2023-03-04T06:45:01;100335.25;;;1.77;83.68
25869;BME280;13688;53.154;18.136;2023-03-04T06:50:25;100337.83;;;1.79;83.68
25869;BME280;13688;53.154;18.136;2023-03-04T06:55:47;100346.55;;;1.81;83.70
25869;BME280;13688;53.154;18.136;2023-03-04T07:01:18;100343.83;;;1.82;83.82
25869;BME280;13688;53.154;18.136;2023-03-04T07:06:42;100344.84;;;1.80;84.14
25869;BME280;13688;53.154;18.136;2023-03-04T07:12:05;100344.14;;;1.76;84.73
25869;BME280;13688;53.154;18.136;2023-03-04T07:17:27;100344.22;;;1.75;85.35
25869;BME280;13688;53.154;18.136;2023-03-04T07:22:50;100322.94;;;1.76;85.94
25869;BME280;13688;53.154;18.136;2023-03-04T07:28:12;100355.52;;;1.78;86.39
25869;BME280;13688;53.154;18.136;2023-03-04T07:33:34;100338.84;;;1.76;86.88
25869;BME280;13688;53.154;18.136;2023-03-04T07:38:57;100331.01;;;1.73;87.51
25869;BME280;13688;53.154;18.136;2023-03-04T07:44:19;100319.55;;;1.72;88.35
25869;BME280;13688;53.154;18.136;2023-03-04T07:49:42;100324.16;;;1.69;89.25
25869;BME280;13688;53.154;18.136;2023-03-04T07:55:05;100319.70;;;1.69;90.19
25869;BME280;13688;53.154;18.136;2023-03-04T08:00:28;100324.00;;;1.72;91.04
25869;BME280;13688;53.154;18.136;2023-03-04T08:05:50;100299.16;;;1.75;91.74
25869;BME280;13688;53.154;18.136;2023-03-04T08:11:15;100310.55;;;1.77;92.20
25869;BME280;13688;53.154;18.136;2023-03-04T08:16:38;100311.23;;;1.80;92.51
25869;BME280;13688;53.154;18.136;2023-03-04T08:22:01;100290.89;;;1.81;92.85
25869;BME280;13688;53.154;18.136;2023-03-04T08:27:24;100294.48;;;1.80;93.41
25869;BME280;13688;53.154;18.136;2023-03-04T08:32:46;100294.55;;;1.78;94.26
25869;BME280;13688;53.154;18.136;2023-03-04T08:38:09;100288.56;;;1.75;95.36
25869;BME280;13688;53.154;18.136;2023-03-04T08:43:32;100288.77;;;1.70;96.63
25869;BME280;13688;53.154;18.136;2023-03-04T08:48:54;100286.97;;;1.70;98.24
25869;BME280;13688;53.154;18.136;2023-03-04T08:54:17;100287.63;;;1.76;99.90
25869;BME280;13688;53.154;18.136;2023-03-04T08:59:39;100287.70;;;1.74;100.00
25869;BME280;13688;53.154;18.136;2023-03-04T09:05:02;100287.63;;;1.76;100.00
25869;BME280;13688;53.154;18.136;2023-03-04T09:10:25;100291.05;;;1.78;100.00
25869;BME280;13688;53.154;18.136;2023-03-04T09:15:52;100315.06;;;1.75;100.00
25869;BME280;13688;53.154;18.136;2023-03-04T09:21:15;100309.97;;;1.70;100.00
25869;BME280;13688;53.154;18.136;2023-03-04T09:26:38;100316.91;;;1.72;100.00
25869;BME280;13688;53.154;18.136;2023-03-04T09:32:00;100314.47;;;1.87;100.00
25869;BME280;13688;53.154;18.136;2023-03-04T09:37:24;100305.98;;;1.97;100.00
25869;BME280;13688;53.154;18.136;2023-03-04T09:42:50;100315.66;;;1.98;100.00
25869;BME280;13688;53.154;18.136;2023-03-04T09:48:22;100295.09;;;2.04;100.00
25869;BME280;13688;53.154;18.136;2023-03-04T09:59:46;100293.70;;;2.14;100.00
25869;BME280;13688;53.154;18.136;2023-03-04T10:05:07;100304.06;;;2.18;100.00
25869;BME280;13688;53.154;18.136;2023-03-04T10:10:39;100296.42;;;2.29;100.00
25869;BME280;13688;53.154;18.136;2023-03-04T10:16:04;100290.04;;;2.34;100.00
25869;BME280;13688;53.154;18.136;2023-03-04T10:21:42;100290.09;;;2.49;100.00
25869;BME280;13688;53.154;18.136;2023-03-04T10:27:09;100300.41;;;2.55;98.83
25869;BME280;13688;53.154;18.136;2023-03-04T10:32:33;100282.16;;;3.00;94.29
25869;BME280;13688;53.154;18.136;2023-03-04T10:38:00;100295.55;;;3.14;89.84
25869;BME280;13688;53.154;18.136;2023-03-04T10:43:23;100291.83;;;3.50;86.93
25869;BME280;13688;53.154;18.136;2023-03-04T10:48:46;100300.75;;;3.80;84.78
25869;BME280;13688;53.154;18.136;2023-03-04T11:00:00;100290.77;;;3.99;76.47
25869;BME280;13688;53.154;18.136;2023-03-04T11:05:42;100303.56;;;3.93;69.06
25869;BME280;13688;53.154;18.136;2023-03-04T11:11:20;100305.27;;;4.10;64.27
25869;BME280;13688;53.154;18.136;2023-03-04T11:16:37;100304.17;;;3.98;57.86
25869;BME280;13688;53.154;18.136;2023-03-04T11:22:03;100325.11;;;3.88;53.85
25869;BME280;13688;53.154;18.136;2023-03-04T11:33:08;100319.36;;;3.96;49.00
25869;BME280;13688;53.154;18.136;2023-03-04T11:38:35;100350.67;;;3.91;47.74
25869;BME280;13688;53.154;18.136;2023-03-04T11:44:05;100334.19;;;4.00;46.91
25869;BME280;13688;53.154;18.136;2023-03-04T11:55:37;100316.41;;;4.16;46.33
25869;BME280;13688;53.154;18.136;2023-03-04T12:01:29;100332.29;;;4.18;46.59
25869;BME280;13688;53.154;18.136;2023-03-04T12:07:05;100333.66;;;4.25;46.35
25869;BME280;13688;53.154;18.136;2023-03-04T12:18:25;100330.92;;;4.11;43.11
25869;BME280;13688;53.154;18.136;2023-03-04T12:29:46;100331.77;;;5.15;42.84
25869;BME280;13688;53.154;18.136;2023-03-04T12:41:47;100369.36;;;5.82;39.25
25869;BME280;13688;53.154;18.136;2023-03-04T12:47:46;100387.77;;;4.55;38.55
25869;BME280;13688;53.154;18.136;2023-03-04T12:53:35;100358.22;;;5.04;36.45
25869;BME280;13688;53.154;18.136;2023-03-04T12:59:17;100349.45;;;5.73;32.25
25869;BME280;13688;53.154;18.136;2023-03-04T13:04:52;100355.95;;;5.55;30.43
25869;BME280;13688;53.154;18.136;2023-03-04T13:10:18;100369.70;;;6.19;31.09
25869;BME280;13688;53.154;18.136;2023-03-04T13:15:42;100370.77;;;5.88;30.61
25869;BME280;13688;53.154;18.136;2023-03-04T13:26:41;100359.34;;;5.86;30.00
25869;BME280;13688;53.154;18.136;2023-03-04T13:32:11;100376.13;;;6.02;29.67
25869;BME280;13688;53.154;18.136;2023-03-04T13:37:58;100364.64;;;6.14;30.46
25869;BME280;13688;53.154;18.136;2023-03-04T13:43:26;100371.69;;;5.60;30.67
25869;BME280;13688;53.154;18.136;2023-03-04T13:48:59;100396.19;;;5.08;30.98
25869;BME280;13688;53.154;18.136;2023-03-04T13:54:36;100380.42;;;5.48;31.08
25869;BME280;13688;53.154;18.136;2023-03-04T14:00:02;100364.12;;;5.95;31.70
25869;BME280;13688;53.154;18.136;2023-03-04T14:05:28;100363.72;;;5.01;32.17
25869;BME280;13688;53.154;18.136;2023-03-04T14:10:56;100354.80;;;5.16;32.45
25869;BME280;13688;53.154;18.136;2023-03-04T14:16:20;100359.75;;;4.18;33.88
25869;BME280;13688;53.154;18.136;2023-03-04T14:21:46;100376.97;;;4.73;34.08
25869;BME280;13688;53.154;18.136;2023-03-04T14:27:13;100364.83;;;4.07;34.61
25869;BME280;13688;53.154;18.136;2023-03-04T14:32:36;100364.56;;;3.80;35.90
25869;BME280;13688;53.154;18.136;2023-03-04T14:38:06;100405.81;;;3.71;36.33
25869;BME280;13688;53.154;18.136;2023-03-04T14:43:35;100377.11;;;3.45;36.73
25869;BME280;13688;53.154;18.136;2023-03-04T14:49:00;100391.75;;;3.36;36.69
25869;BME280;13688;53.154;18.136;2023-03-04T14:54:40;100395.61;;;3.31;36.32
25869;BME280;13688;53.154;18.136;2023-03-04T15:05:42;100395.07;;;4.82;33.13
25869;BME280;13688;53.154;18.136;2023-03-04T15:11:12;100398.20;;;5.18;31.36
25869;BME280;13688;53.154;18.136;2023-03-04T15:16:54;100404.16;;;4.94;30.69
25869;BME280;13688;53.154;18.136;2023-03-04T15:22:16;100406.94;;;3.67;32.40
25869;BME280;13688;53.154;18.136;2023-03-04T15:27:39;100406.27;;;2.62;34.51
25869;BME280;13688;53.154;18.136;2023-03-04T15:33:04;100434.08;;;2.72;35.99
25869;BME280;13688;53.154;18.136;2023-03-04T15:38:29;100428.35;;;3.64;34.57
25869;BME280;13688;53.154;18.136;2023-03-04T15:43:52;100445.73;;;4.03;34.46
25869;BME280;13688;53.154;18.136;2023-03-04T15:49:15;100448.66;;;3.98;34.62
25869;BME280;13688;53.154;18.136;2023-03-04T15:54:38;100457.77;;;4.10;33.46
25869;BME280;13688;53.154;18.136;2023-03-04T16:00:01;100494.70;;;3.50;32.79
25869;BME280;13688;53.154;18.136;2023-03-04T16:05:25;100493.66;;;2.83;32.20
25869;BME280;13688;53.154;18.136;2023-03-04T16:10:51;100487.45;;;2.66;33.18
25869;BME280;13688;53.154;18.136;2023-03-04T16:16:17;100504.06;;;2.52;33.77
25869;BME280;13688;53.154;18.136;2023-03-04T16:21:40;100498.84;;;1.94;34.76
25869;BME280;13688;53.154;18.136;2023-03-04T16:27:02;100522.32;;;1.62;35.64
25869;BME280;13688;53.154;18.136;2023-03-04T16:32:29;100514.85;;;1.31;37.06
25869;BME280;13688;53.154;18.136;2023-03-04T16:37:51;100515.99;;;1.26;38.92
25869;BME280;13688;53.154;18.136;2023-03-04T16:43:17;100545.89;;;1.07;41.49
25869;BME280;13688;53.154;18.136;2023-03-04T16:49:13;100549.95;;;0.94;42.46
25869;BME280;13688;53.154;18.136;2023-03-04T16:55:00;100551.25;;;0.84;42.53
25869;BME280;13688;53.154;18.136;2023-03-04T17:00:26;100585.09;;;0.76;42.34
25869;BME280;13688;53.154;18.136;2023-03-04T17:05:48;100575.70;;;0.69;42.17
25869;BME280;13688;53.154;18.136;2023-03-04T17:11:12;100590.14;;;0.60;42.37
25869;BME280;13688;53.154;18.136;2023-03-04T17:16:36;100605.25;;;0.56;41.88
25869;BME280;13688;53.154;18.136;2023-03-04T17:22:02;100633.81;;;0.48;41.11
25869;BME280;13688;53.154;18.136;2023-03-04T17:27:25;100614.78;;;0.39;40.39
25869;BME280;13688;53.154;18.136;2023-03-04T17:32:47;100620.89;;;0.16;40.43
25869;BME280;13688;53.154;18.136;2023-03-04T17:38:11;100628.48;;;0.02;40.65
25869;BME280;13688;53.154;18.136;2023-03-04T17:43:34;100634.15;;;-0.09;40.46
25869;BME280;13688;53.154;18.136;2023-03-04T17:49:02;100635.73;;;-0.30;40.94
25869;BME280;13688;53.154;18.136;2023-03-04T17:54:26;100627.06;;;-0.34;40.48
25869;BME280;13688;53.154;18.136;2023-03-04T17:59:49;100640.83;;;-0.50;40.73
25869;BME280;13688;53.154;18.136;2023-03-04T18:05:12;100639.47;;;-0.62;40.89
25869;BME280;13688;53.154;18.136;2023-03-04T18:10:36;100635.57;;;-0.77;41.15
25869;BME280;13688;53.154;18.136;2023-03-04T18:15:59;100635.25;;;-0.94;41.80
25869;BME280;13688;53.154;18.136;2023-03-04T18:21:24;100624.06;;;-1.02;42.48
25869;BME280;13688;53.154;18.136;2023-03-04T18:26:47;100634.27;;;-1.20;43.01
25869;BME280;13688;53.154;18.136;2023-03-04T18:32:09;100640.11;;;-1.38;43.84
25869;BME280;13688;53.154;18.136;2023-03-04T18:37:33;100638.02;;;-1.56;44.72
25869;BME280;13688;53.154;18.136;2023-03-04T18:42:57;100640.10;;;-1.67;45.38
25869;BME280;13688;53.154;18.136;2023-03-04T18:48:21;100641.72;;;-1.93;46.09
25869;BME280;13688;53.154;18.136;2023-03-04T18:53:45;100651.05;;;-2.14;46.88
25869;BME280;13688;53.154;18.136;2023-03-04T18:59:29;100649.12;;;-2.40;47.67
25869;BME280;13688;53.154;18.136;2023-03-04T19:04:38;100647.19;;;-2.67;48.44
25869;BME280;13688;53.154;18.136;2023-03-04T19:10:02;100649.31;;;-2.83;49.54
25869;BME280;13688;53.154;18.136;2023-03-04T19:15:25;100661.13;;;-3.01;50.76
25869;BME280;13688;53.154;18.136;2023-03-04T19:20:48;100660.34;;;-3.04;51.67
25869;BME280;13688;53.154;18.136;2023-03-04T19:26:13;100661.94;;;-2.97;52.28
25869;BME280;13688;53.154;18.136;2023-03-04T19:31:37;100666.39;;;-3.01;52.74
25869;BME280;13688;53.154;18.136;2023-03-04T19:37:01;100665.89;;;-3.17;53.28
25869;BME280;13688;53.154;18.136;2023-03-04T19:42:25;100668.06;;;-3.35;53.95
25869;BME280;13688;53.154;18.136;2023-03-04T19:47:48;100670.06;;;-3.48;54.86
25869;BME280;13688;53.154;18.136;2023-03-04T19:53:13;100665.33;;;-3.72;55.62
25869;BME280;13688;53.154;18.136;2023-03-04T19:58:37;100663.17;;;-3.95;56.34
25869;BME280;13688;53.154;18.136;2023-03-04T20:04:03;100658.23;;;-4.12;56.85
25869;BME280;13688;53.154;18.136;2023-03-04T20:09:33;100659.68;;;-3.97;57.46
25869;BME280;13688;53.154;18.136;2023-03-04T20:14:57;100673.67;;;-3.95;57.32
25869;BME280;13688;53.154;18.136;2023-03-04T20:20:24;100663.38;;;-4.08;57.28
25869;BME280;13688;53.154;18.136;2023-03-04T20:25:48;100666.27;;;-4.21;57.60
25869;BME280;13688;53.154;18.136;2023-03-04T20:31:21;100664.64;;;-4.28;58.17
25869;BME280;13688;53.154;18.136;2023-03-04T20:36:47;100671.75;;;-4.34;58.66
25869;BME280;13688;53.154;18.136;2023-03-04T20:42:12;100658.14;;;-4.57;59.32
25869;BME280;13688;53.154;18.136;2023-03-04T20:47:37;100660.70;;;-4.52;60.05
25869;BME280;13688;53.154;18.136;2023-03-04T20:53:02;100659.52;;;-4.36;59.93
25869;BME280;13688;53.154;18.136;2023-03-04T20:58:27;100655.84;;;-4.24;59.30
25869;BME280;13688;53.154;18.136;2023-03-04T21:03:50;100655.91;;;-4.29;58.96
25869;BME280;13688;53.154;18.136;2023-03-04T21:09:21;100649.66;;;-4.22;58.50
25869;BME280;13688;53.154;18.136;2023-03-04T21:14:46;100646.94;;;-4.17;57.96
25869;BME280;13688;53.154;18.136;2023-03-04T21:20:10;100646.90;;;-4.16;57.79
25869;BME280;13688;53.154;18.136;2023-03-04T21:25:34;100644.34;;;-4.19;57.78
25869;BME280;13688;53.154;18.136;2023-03-04T21:30:57;100642.78;;;-4.29;57.90
25869;BME280;13688;53.154;18.136;2023-03-04T21:36:21;100638.50;;;-4.35;58.29
25869;BME280;13688;53.154;18.136;2023-03-04T21:41:44;100628.13;;;-4.41;58.74
25869;BME280;13688;53.154;18.136;2023-03-04T21:47:09;100629.22;;;-4.52;59.01
25869;BME280;13688;53.154;18.136;2023-03-04T21:52:34;100622.41;;;-4.63;59.38
25869;BME280;13688;53.154;18.136;2023-03-04T21:57:57;100618.27;;;-4.77;59.97
25869;BME280;13688;53.154;18.136;2023-03-04T22:03:22;100609.81;;;-4.95;60.61
25869;BME280;13688;53.154;18.136;2023-03-04T22:08:46;100611.02;;;-5.15;61.25
25869;BME280;13688;53.154;18.136;2023-03-04T22:14:11;100611.80;;;-5.09;61.99
25869;BME280;13688;53.154;18.136;2023-03-04T22:19:38;100611.02;;;-5.15;62.73
25869;BME280;13688;53.154;18.136;2023-03-04T22:25:04;100604.13;;;-5.23;63.57
25869;BME280;13688;53.154;18.136;2023-03-04T22:30:29;100597.89;;;-5.14;64.34
25869;BME280;13688;53.154;18.136;2023-03-04T22:35:53;100595.27;;;-5.14;64.60
25869;BME280;13688;53.154;18.136;2023-03-04T22:41:19;100592.87;;;-5.28;64.76
25869;BME280;13688;53.154;18.136;2023-03-04T22:46:44;100590.22;;;-5.26;64.88
25869;BME280;13688;53.154;18.136;2023-03-04T22:52:07;100593.59;;;-5.18;64.90
25869;BME280;13688;53.154;18.136;2023-03-04T22:57:33;100590.11;;;-5.19;64.98
25869;BME280;13688;53.154;18.136;2023-03-04T23:02:58;100588.41;;;-5.21;65.08
25869;BME280;13688;53.154;18.136;2023-03-04T23:08:22;100584.00;;;-5.19;65.37
25869;BME280;13688;53.154;18.136;2023-03-04T23:13:48;100583.08;;;-5.16;65.58
25869;BME280;13688;53.154;18.136;2023-03-04T23:19:16;100569.95;;;-5.15;65.82
25869;BME280;13688;53.154;18.136;2023-03-04T23:24:40;100570.75;;;-5.10;65.92
25869;BME280;13688;53.154;18.136;2023-03-04T23:30:08;100569.08;;;-5.15;66.03
25869;BME280;13688;53.154;18.136;2023-03-04T23:35:33;100557.10;;;-5.30;66.22
25869;BME280;13688;53.154;18.136;2023-03-04T23:40:58;100560.89;;;-5.50;66.57
25869;BME280;13688;53.154;18.136;2023-03-04T23:46:24;100553.14;;;-5.57;67.03
25869;BME280;13688;53.154;18.136;2023-03-04T23:51:48;100544.47;;;-5.62;67.40
25869;BME280;13688;53.154;18.136;2023-03-04T23:57:13;100544.42;;;-5.58;67.83
